createdAt,value
2022-07-25T00:00:48.363Z,1007.03
2022-07-25T00:01:48.391Z,1007.00
2022-07-25T00:02:48.376Z,1006.97
2022-07-25T00:03:48.516Z,1006.94
2022-07-25T00:04:48.519Z,1006.97
2022-07-25T00:05:48.288Z,1006.91
2022-07-25T00:06:48.305Z,1006.92
2022-07-25T00:07:48.258Z,1006.99
2022-07-25T00:08:48.326Z,1006.98
2022-07-25T00:09:48.257Z,1006.95
2022-07-25T00:10:48.349Z,1006.94
2022-07-25T00:11:48.239Z,1007.00
2022-07-25T00:12:49.265Z,1006.91
2022-07-25T00:13:48.227Z,1006.92
2022-07-25T00:14:48.305Z,1006.91
2022-07-25T00:15:48.219Z,1006.90
2022-07-25T00:16:49.191Z,1006.87
2022-07-25T00:17:48.147Z,1006.84
2022-07-25T00:18:48.179Z,1006.88
2022-07-25T00:19:48.140Z,1006.87
2022-07-25T00:20:48.197Z,1006.91
2022-07-25T00:21:48.118Z,1006.84
2022-07-25T00:22:48.209Z,1006.82
2022-07-25T00:23:48.078Z,1006.87
2022-07-25T00:24:48.194Z,1006.82
2022-07-25T00:25:48.079Z,1006.84
2022-07-25T00:26:48.131Z,1006.82
2022-07-25T00:27:48.040Z,1006.80
2022-07-25T00:28:48.040Z,1006.79
2022-07-25T00:29:48.028Z,1006.77
2022-07-25T00:30:48.133Z,1006.82
2022-07-25T00:31:48.049Z,1006.81
2022-07-25T00:32:48.070Z,1006.79
2022-07-25T00:33:47.974Z,1006.79
2022-07-25T00:34:48.036Z,1006.76
2022-07-25T00:35:47.949Z,1006.71
2022-07-25T00:36:47.997Z,1006.68
2022-07-25T00:37:47.946Z,1006.71
2022-07-25T00:38:48.026Z,1006.66
2022-07-25T00:39:47.919Z,1006.65
2022-07-25T00:40:54.369Z,1006.66
2022-07-25T00:41:48.875Z,1006.63
2022-07-25T00:42:47.936Z,1006.64
2022-07-25T00:43:47.873Z,1006.57
2022-07-25T00:44:47.896Z,1006.62
2022-07-25T00:45:47.833Z,1006.65
2022-07-25T00:46:47.944Z,1006.61
2022-07-25T00:47:47.837Z,1006.61
2022-07-25T00:48:47.963Z,1006.55
2022-07-25T00:49:47.802Z,1006.55
2022-07-25T00:50:47.905Z,1006.55
2022-07-25T00:51:47.771Z,1006.53
2022-07-25T00:52:47.799Z,1006.52
2022-07-25T00:53:47.758Z,1006.47
2022-07-25T00:54:47.775Z,1006.53
2022-07-25T00:55:47.720Z,1006.47
2022-07-25T00:57:08.820Z,1006.50
2022-07-25T00:57:47.699Z,1006.50
2022-07-25T00:59:09.810Z,1006.53
2022-07-25T00:59:47.674Z,1006.50
2022-07-25T01:00:49.698Z,1006.53
2022-07-25T01:01:47.930Z,1006.46
2022-07-25T01:02:47.765Z,1006.48
2022-07-25T01:03:47.632Z,1006.50
2022-07-25T01:04:47.728Z,1006.50
2022-07-25T01:05:53.103Z,1006.48
2022-07-25T01:06:48.613Z,1006.43
2022-07-25T01:07:47.582Z,1006.42
2022-07-25T01:08:47.623Z,1006.42
2022-07-25T01:09:47.579Z,1006.37
2022-07-25T01:10:47.615Z,1006.43
2022-07-25T01:11:47.541Z,1006.40
2022-07-25T01:12:47.636Z,1006.41
2022-07-25T01:13:47.516Z,1006.33
2022-07-25T01:14:47.611Z,1006.31
2022-07-25T01:15:47.542Z,1006.40
2022-07-25T01:16:47.554Z,1006.30
2022-07-25T01:17:47.479Z,1006.35
2022-07-25T01:18:47.571Z,1006.32
2022-07-25T01:19:47.465Z,1006.33
2022-07-25T01:20:47.481Z,1006.33
2022-07-25T01:21:47.427Z,1006.28
2022-07-25T01:22:47.522Z,1006.26
2022-07-25T01:23:47.401Z,1006.29
2022-07-25T01:24:47.457Z,1006.26
2022-07-25T01:25:47.403Z,1006.26
2022-07-25T01:26:47.422Z,1006.26
2022-07-25T01:27:51.413Z,1006.25
2022-07-25T01:28:48.458Z,1006.25
2022-07-25T01:29:47.357Z,1006.31
2022-07-25T01:30:47.431Z,1006.26
2022-07-25T01:31:47.315Z,1006.34
2022-07-25T01:32:47.360Z,1006.26
2022-07-25T01:33:47.289Z,1006.28
2022-07-25T01:34:47.346Z,1006.24
2022-07-25T01:35:47.267Z,1006.28
2022-07-25T01:36:47.287Z,1006.24
2022-07-25T01:37:47.251Z,1006.29
2022-07-25T01:38:47.298Z,1006.24
2022-07-25T01:39:47.240Z,1006.26
2022-07-25T01:41:09.345Z,1006.25
2022-07-25T01:41:47.206Z,1006.21
2022-07-25T01:43:08.214Z,1006.20
2022-07-25T01:43:47.207Z,1006.19
2022-07-25T01:44:48.216Z,1006.15
2022-07-25T01:45:47.222Z,1006.20
2022-07-25T01:46:48.234Z,1006.14
2022-07-25T01:47:47.133Z,1006.13
2022-07-25T01:48:47.216Z,1006.15
2022-07-25T01:49:47.150Z,1006.17
2022-07-25T01:50:47.174Z,1006.19
2022-07-25T01:51:47.126Z,1006.13
2022-07-25T01:52:47.188Z,1006.17
2022-07-25T01:53:47.070Z,1006.13
2022-07-25T01:54:47.168Z,1006.13
2022-07-25T01:55:47.043Z,1006.09
2022-07-25T01:56:48.175Z,1006.07
2022-07-25T01:57:49.443Z,1006.06
2022-07-25T01:58:47.027Z,1006.03
2022-07-25T01:59:47.030Z,1005.97
2022-07-25T02:00:47.045Z,1005.94
2022-07-25T02:01:47.057Z,1005.95
2022-07-25T02:02:47.088Z,1005.96
2022-07-25T02:03:46.957Z,1005.89
2022-07-25T02:04:47.097Z,1005.87
2022-07-25T02:05:46.934Z,1005.84
2022-07-25T02:06:46.978Z,1005.87
2022-07-25T02:07:46.913Z,1005.87
2022-07-25T02:08:46.995Z,1005.90
2022-07-25T02:09:46.925Z,1005.78
2022-07-25T02:10:46.905Z,1005.78
2022-07-25T02:11:46.864Z,1005.79
2022-07-25T02:12:46.916Z,1005.77
2022-07-25T02:13:46.845Z,1005.77
2022-07-25T02:14:46.881Z,1005.75
2022-07-25T02:15:46.821Z,1005.77
2022-07-25T02:16:46.896Z,1005.77
2022-07-25T02:17:46.802Z,1005.73
2022-07-25T02:18:47.745Z,1005.72
2022-07-25T02:19:46.816Z,1005.67
2022-07-25T02:20:46.869Z,1005.71
2022-07-25T02:21:46.752Z,1005.65
2022-07-25T02:22:48.849Z,1005.63
2022-07-25T02:23:46.734Z,1005.62
2022-07-25T02:24:46.866Z,1005.60
2022-07-25T02:25:46.709Z,1005.57
2022-07-25T02:27:08.752Z,1005.57
2022-07-25T02:27:46.694Z,1005.56
2022-07-25T02:28:46.675Z,1005.57
2022-07-25T02:29:47.708Z,1005.59
2022-07-25T02:30:46.753Z,1005.55
2022-07-25T02:31:47.665Z,1005.56
2022-07-25T02:32:46.629Z,1005.53
2022-07-25T02:33:46.677Z,1005.60
2022-07-25T02:34:46.632Z,1005.58
2022-07-25T02:35:46.666Z,1005.54
2022-07-25T02:36:46.611Z,1005.53
2022-07-25T02:37:46.696Z,1005.54
2022-07-25T02:38:46.565Z,1005.54
2022-07-25T02:39:46.647Z,1005.51
2022-07-25T02:40:46.557Z,1005.50
2022-07-25T02:41:46.610Z,1005.50
2022-07-25T02:42:46.544Z,1005.51
2022-07-25T02:43:46.639Z,1005.49
2022-07-25T02:44:46.520Z,1005.52
2022-07-25T02:45:46.614Z,1005.48
2022-07-25T02:46:46.497Z,1005.49
2022-07-25T02:47:46.548Z,1005.45
2022-07-25T02:48:46.514Z,1005.48
2022-07-25T02:49:46.540Z,1005.44
2022-07-25T02:50:46.434Z,1005.42
2022-07-25T02:51:46.470Z,1005.46
2022-07-25T02:52:46.407Z,1005.37
2022-07-25T02:53:57.120Z,1005.36
2022-07-25T02:54:47.407Z,1005.32
2022-07-25T02:55:46.396Z,1005.32
2022-07-25T02:56:46.362Z,1005.30
2022-07-25T02:57:46.410Z,1005.34
2022-07-25T02:58:46.341Z,1005.31
2022-07-25T02:59:46.421Z,1005.33
2022-07-25T03:00:46.336Z,1005.28
2022-07-25T03:01:46.386Z,1005.32
2022-07-25T03:02:46.313Z,1005.26
2022-07-25T03:03:46.456Z,1005.29
2022-07-25T03:04:46.274Z,1005.28
2022-07-25T03:05:46.317Z,1005.25
2022-07-25T03:06:46.249Z,1005.25
2022-07-25T03:08:08.289Z,1005.28
2022-07-25T03:08:46.226Z,1005.26
2022-07-25T03:09:46.214Z,1005.22
2022-07-25T03:10:47.247Z,1005.26
2022-07-25T03:11:46.197Z,1005.26
2022-07-25T03:12:46.217Z,1005.21
2022-07-25T03:13:46.172Z,1005.22
2022-07-25T03:14:46.220Z,1005.24
2022-07-25T03:15:46.165Z,1005.15
2022-07-25T03:16:46.289Z,1005.16
2022-07-25T03:17:46.126Z,1005.14
2022-07-25T03:18:46.147Z,1005.17
2022-07-25T03:19:46.132Z,1005.11
2022-07-25T03:20:46.217Z,1005.15
2022-07-25T03:21:46.115Z,1005.13
2022-07-25T03:22:46.172Z,1005.14
2022-07-25T03:23:50.531Z,1005.13
2022-07-25T03:24:47.105Z,1005.11
2022-07-25T03:25:46.084Z,1005.12
2022-07-25T03:26:46.105Z,1005.10
2022-07-25T03:27:46.065Z,1005.08
2022-07-25T03:28:46.146Z,1005.11
2022-07-25T03:29:45.993Z,1005.03
2022-07-25T03:30:46.072Z,1005.09
2022-07-25T03:31:46.079Z,1005.02
2022-07-25T03:32:46.038Z,1004.98
2022-07-25T03:33:45.954Z,1004.99
2022-07-25T03:34:46.050Z,1004.97
2022-07-25T03:35:45.948Z,1004.92
2022-07-25T03:36:45.961Z,1004.94
2022-07-25T03:37:45.903Z,1004.95
2022-07-25T03:38:45.976Z,1004.93
2022-07-25T03:39:45.881Z,1004.92
2022-07-25T03:40:45.946Z,1004.86
2022-07-25T03:41:45.866Z,1004.89
2022-07-25T03:42:45.904Z,1004.86
2022-07-25T03:43:45.838Z,1004.89
2022-07-25T03:44:45.915Z,1004.86
2022-07-25T03:45:45.941Z,1004.82
2022-07-25T03:46:45.824Z,1004.81
2022-07-25T03:47:45.818Z,1004.81
2022-07-25T03:48:45.901Z,1004.79
2022-07-25T03:49:45.775Z,1004.76
2022-07-25T03:50:48.874Z,1004.71
2022-07-25T03:51:45.750Z,1004.72
2022-07-25T03:52:46.807Z,1004.74
2022-07-25T03:53:45.724Z,1004.72
2022-07-25T03:55:06.823Z,1004.72
2022-07-25T03:55:45.705Z,1004.65
2022-07-25T03:56:45.692Z,1004.65
2022-07-25T03:57:45.701Z,1004.65
2022-07-25T03:58:45.667Z,1004.68
2022-07-25T03:59:45.711Z,1004.64
2022-07-25T04:00:45.764Z,1004.63
2022-07-25T04:01:45.723Z,1004.60
2022-07-25T04:02:45.712Z,1004.62
2022-07-25T04:03:45.637Z,1004.61
2022-07-25T04:04:45.617Z,1004.62
2022-07-25T04:05:47.688Z,1004.61
2022-07-25T04:06:45.577Z,1004.66
2022-07-25T04:07:45.664Z,1004.61
2022-07-25T04:08:45.562Z,1004.54
2022-07-25T04:09:45.575Z,1004.57
2022-07-25T04:10:45.553Z,1004.58
2022-07-25T04:11:45.590Z,1004.57
2022-07-25T04:12:45.513Z,1004.56
2022-07-25T04:13:45.604Z,1004.57
2022-07-25T04:14:45.485Z,1004.54
2022-07-25T04:15:45.570Z,1004.51
2022-07-25T04:16:45.518Z,1004.50
2022-07-25T04:17:45.530Z,1004.47
2022-07-25T04:18:45.442Z,1004.48
2022-07-25T04:19:45.543Z,1004.49
2022-07-25T04:20:45.437Z,1004.46
2022-07-25T04:21:45.452Z,1004.47
2022-07-25T04:22:47.097Z,1004.44
2022-07-25T04:23:45.470Z,1004.44
2022-07-25T04:24:45.388Z,1004.43
2022-07-25T04:25:45.432Z,1004.38
2022-07-25T04:26:45.355Z,1004.36
2022-07-25T04:27:45.392Z,1004.38
2022-07-25T04:28:45.327Z,1004.36
2022-07-25T04:29:45.405Z,1004.38
2022-07-25T04:30:45.342Z,1004.38
2022-07-25T04:31:45.370Z,1004.39
2022-07-25T04:32:45.284Z,1004.29
2022-07-25T04:33:46.360Z,1004.30
2022-07-25T04:34:45.271Z,1004.28
2022-07-25T04:35:45.290Z,1004.24
2022-07-25T04:36:45.244Z,1004.26
2022-07-25T04:37:46.281Z,1004.26
2022-07-25T04:38:45.223Z,1004.21
2022-07-25T04:40:54.848Z,1004.21
2022-07-25T04:41:54.744Z,1004.22
2022-07-25T04:42:54.813Z,1004.20
2022-07-25T04:43:54.722Z,1004.14
2022-07-25T04:44:54.829Z,1004.12
2022-07-25T04:45:54.762Z,1004.18
2022-07-25T04:46:54.736Z,1004.12
2022-07-25T04:47:54.676Z,1004.11
2022-07-25T04:48:55.804Z,1004.14
2022-07-25T04:49:54.659Z,1004.03
2022-07-25T04:50:54.731Z,1004.09
2022-07-25T04:51:54.637Z,1004.06
2022-07-25T04:54:04.673Z,1004.10
2022-07-25T04:55:04.156Z,1004.07
2022-07-25T04:56:04.169Z,1004.10
2022-07-25T04:57:04.128Z,1004.07
2022-07-25T04:58:04.133Z,1004.03
2022-07-25T04:59:06.097Z,1004.01
2022-07-25T05:00:04.164Z,1003.99
2022-07-25T05:01:04.209Z,1004.00
2022-07-25T05:02:04.302Z,1003.98
2022-07-25T05:03:04.071Z,1003.98
2022-07-25T05:04:04.611Z,1004.00
2022-07-25T05:05:04.046Z,1003.96
2022-07-25T05:06:04.138Z,1003.97
2022-07-25T05:07:04.021Z,1003.97
2022-07-25T05:08:05.023Z,1004.02
2022-07-25T05:09:04.003Z,1003.98
2022-07-25T05:10:04.011Z,1004.00
2022-07-25T05:11:04.004Z,1003.98
2022-07-25T05:12:04.024Z,1004.01
2022-07-25T05:13:03.948Z,1003.95
2022-07-25T05:14:04.463Z,1003.95
2022-07-25T05:15:03.940Z,1004.00
2022-07-25T05:16:04.092Z,1003.96
2022-07-25T05:17:03.910Z,1003.96
2022-07-25T05:18:03.962Z,1003.94
2022-07-25T05:19:03.883Z,1003.97
2022-07-25T05:20:03.980Z,1003.97
2022-07-25T05:21:03.880Z,1003.98
2022-07-25T05:22:03.891Z,1003.93
2022-07-25T05:23:03.838Z,1003.92
2022-07-25T05:24:04.334Z,1003.95
2022-07-25T05:25:03.818Z,1003.96
2022-07-25T05:26:03.878Z,1003.89
2022-07-25T05:27:03.852Z,1003.93
2022-07-25T05:28:03.832Z,1003.89
2022-07-25T05:29:03.796Z,1003.93
2022-07-25T05:30:03.845Z,1003.89
2022-07-25T05:31:03.833Z,1003.87
2022-07-25T05:32:03.822Z,1003.87
2022-07-25T05:33:03.733Z,1003.83
2022-07-25T05:34:04.185Z,1003.80
2022-07-25T05:35:03.710Z,1003.81
2022-07-25T05:36:03.736Z,1003.72
2022-07-25T05:37:03.694Z,1003.76
2022-07-25T05:38:03.697Z,1003.76
2022-07-25T05:39:03.669Z,1003.77
2022-07-25T05:40:03.708Z,1003.79
2022-07-25T05:41:03.669Z,1003.79
2022-07-25T05:42:03.722Z,1003.79
2022-07-25T05:43:03.895Z,1003.78
2022-07-25T05:44:03.998Z,1003.78
2022-07-25T05:45:03.603Z,1003.77
2022-07-25T05:46:03.738Z,1003.76
2022-07-25T05:47:03.625Z,1003.76
2022-07-25T05:48:25.727Z,1003.76
2022-07-25T05:49:03.622Z,1003.75
2022-07-25T05:50:03.578Z,1003.75
2022-07-25T05:51:03.550Z,1003.71
2022-07-25T05:53:13.171Z,1003.72
2022-07-25T05:54:13.059Z,1003.75
2022-07-25T05:55:13.131Z,1003.70
2022-07-25T05:56:13.053Z,1003.74
2022-07-25T05:57:13.156Z,1003.78
2022-07-25T05:58:13.019Z,1003.71
2022-07-25T05:59:13.058Z,1003.71
2022-07-25T06:00:12.994Z,1003.74
2022-07-25T06:01:16.090Z,1003.67
2022-07-25T06:02:13.074Z,1003.67
2022-07-25T06:03:34.093Z,1003.61
2022-07-25T06:04:12.948Z,1003.62
2022-07-25T06:05:35.012Z,1003.60
2022-07-25T06:06:12.946Z,1003.57
2022-07-25T06:07:16.839Z,1003.60
2022-07-25T06:08:13.966Z,1003.62
2022-07-25T06:09:12.910Z,1003.60
2022-07-25T06:10:12.923Z,1003.63
2022-07-25T06:11:12.919Z,1003.66
2022-07-25T06:12:12.939Z,1003.62
2022-07-25T06:13:12.915Z,1003.62
2022-07-25T06:14:12.977Z,1003.60
2022-07-25T06:15:19.220Z,1003.55
2022-07-25T06:16:13.940Z,1003.55
2022-07-25T06:17:12.885Z,1003.58
2022-07-25T06:18:12.824Z,1003.53
2022-07-25T06:19:12.884Z,1003.54
2022-07-25T06:20:12.801Z,1003.55
2022-07-25T06:21:12.870Z,1003.53
2022-07-25T06:22:12.769Z,1003.56
2022-07-25T06:23:12.816Z,1003.54
2022-07-25T06:24:12.745Z,1003.58
2022-07-25T06:25:12.837Z,1003.56
2022-07-25T06:26:12.748Z,1003.55
2022-07-25T06:27:14.971Z,1003.52
2022-07-25T06:28:13.709Z,1003.55
2022-07-25T06:29:12.751Z,1003.59
2022-07-25T06:30:19.836Z,1003.53
2022-07-25T06:31:13.808Z,1003.52
2022-07-25T06:32:12.649Z,1003.53
2022-07-25T06:33:12.677Z,1003.50
2022-07-25T06:34:12.650Z,1003.49
2022-07-25T06:35:12.686Z,1003.50
2022-07-25T06:36:12.638Z,1003.47
2022-07-25T06:37:12.723Z,1003.52
2022-07-25T06:38:12.581Z,1003.49
2022-07-25T06:39:12.612Z,1003.55
2022-07-25T06:40:12.559Z,1003.53
2022-07-25T06:41:12.597Z,1003.46
2022-07-25T06:42:12.541Z,1003.48
2022-07-25T06:43:12.538Z,1003.46
2022-07-25T06:44:12.512Z,1003.45
2022-07-25T06:45:13.579Z,1003.43
2022-07-25T06:46:12.561Z,1003.44
2022-07-25T06:47:13.592Z,1003.42
2022-07-25T06:48:12.484Z,1003.44
2022-07-25T06:50:22.057Z,1003.36
2022-07-25T06:51:21.950Z,1003.38
2022-07-25T06:52:22.022Z,1003.38
2022-07-25T06:53:21.938Z,1003.42
2022-07-25T06:54:43.027Z,1003.40
2022-07-25T06:55:21.924Z,1003.40
2022-07-25T06:56:22.983Z,1003.36
2022-07-25T06:57:21.889Z,1003.36
2022-07-25T06:59:32.054Z,1003.31
2022-07-25T07:00:32.056Z,1003.28
2022-07-25T07:01:32.156Z,1003.30
2022-07-25T07:02:31.936Z,1003.29
2022-07-25T07:03:31.972Z,1003.30
2022-07-25T07:04:31.905Z,1003.32
2022-07-25T07:05:31.995Z,1003.28
2022-07-25T07:06:31.886Z,1003.34
2022-07-25T07:07:31.957Z,1003.38
2022-07-25T07:08:31.864Z,1003.35
2022-07-25T07:09:52.963Z,1003.33
2022-07-25T07:10:31.884Z,1003.37
2022-07-25T07:11:31.900Z,1003.33
2022-07-25T07:12:31.815Z,1003.40
2022-07-25T07:13:54.832Z,1003.34
2022-07-25T07:14:31.793Z,1003.35
2022-07-25T07:15:31.823Z,1003.27
2022-07-25T07:16:31.923Z,1003.27
2022-07-25T07:17:31.761Z,1003.25
2022-07-25T07:18:31.826Z,1003.25
2022-07-25T07:19:31.739Z,1003.19
2022-07-25T07:20:31.792Z,1003.24
2022-07-25T07:21:31.727Z,1003.19
2022-07-25T07:22:31.768Z,1003.14
2022-07-25T07:23:31.705Z,1003.13
2022-07-25T07:24:31.765Z,1003.09
2022-07-25T07:25:31.694Z,1003.22
2022-07-25T07:26:31.785Z,1003.15
2022-07-25T07:27:31.654Z,1003.07
2022-07-25T07:28:31.692Z,1003.07
2022-07-25T07:29:31.681Z,1003.09
2022-07-25T07:30:58.736Z,1003.07
2022-07-25T07:31:32.699Z,1003.16
2022-07-25T07:32:31.630Z,1003.13
2022-07-25T07:33:31.625Z,1003.15
2022-07-25T07:34:31.593Z,1003.09
2022-07-25T07:35:34.931Z,1003.08
2022-07-25T07:36:31.583Z,1003.06
2022-07-25T07:37:36.547Z,1003.02
2022-07-25T07:38:32.551Z,1003.03
2022-07-25T07:39:31.582Z,1003.00
2022-07-25T07:40:31.522Z,1003.00
2022-07-25T07:41:31.580Z,1003.04
2022-07-25T07:42:31.487Z,1003.00
2022-07-25T07:43:31.638Z,1003.00
2022-07-25T07:44:31.485Z,1003.00
2022-07-25T07:45:31.554Z,1003.05
2022-07-25T07:46:31.514Z,1003.04
2022-07-25T07:47:31.515Z,1003.07
2022-07-25T07:48:31.524Z,1003.03
2022-07-25T07:49:31.433Z,1003.03
2022-07-25T07:50:32.415Z,1003.03
2022-07-25T07:51:32.484Z,1003.01
2022-07-25T07:52:31.382Z,1002.99
2022-07-25T07:53:31.512Z,1003.01
2022-07-25T07:54:31.362Z,1003.00
2022-07-25T07:55:31.417Z,1002.98
2022-07-25T07:56:31.351Z,1002.97
2022-07-25T07:57:52.374Z,1002.95
2022-07-25T07:58:31.314Z,1002.94
2022-07-25T07:59:33.414Z,1002.94
2022-07-25T08:00:31.347Z,1002.97
2022-07-25T08:01:31.386Z,1002.94
2022-07-25T08:02:31.321Z,1002.96
2022-07-25T08:03:31.320Z,1003.02
2022-07-25T08:04:31.270Z,1002.88
2022-07-25T08:05:31.295Z,1002.87
2022-07-25T08:06:31.226Z,1002.86
2022-07-25T08:07:31.247Z,1002.85
2022-07-25T08:08:31.778Z,1002.83
2022-07-25T08:09:31.304Z,1002.85
2022-07-25T08:10:31.225Z,1002.82
2022-07-25T08:11:31.272Z,1002.86
2022-07-25T08:12:31.166Z,1002.79
2022-07-25T08:13:31.185Z,1002.88
2022-07-25T08:14:31.147Z,1002.78
2022-07-25T08:15:31.258Z,1002.79
2022-07-25T08:16:31.256Z,1002.81
2022-07-25T08:17:31.209Z,1002.68
2022-07-25T08:18:31.120Z,1002.73
2022-07-25T08:19:31.130Z,1002.71
2022-07-25T08:20:38.936Z,1002.74
2022-07-25T08:21:32.093Z,1002.72
2022-07-25T08:22:31.143Z,1002.75
2022-07-25T08:23:31.058Z,1002.70
2022-07-25T08:24:31.170Z,1002.67
2022-07-25T08:25:31.053Z,1002.65
2022-07-25T08:26:31.068Z,1002.64
2022-07-25T08:27:31.017Z,1002.61
2022-07-25T08:28:31.081Z,1002.65
2022-07-25T08:29:30.997Z,1002.64
2022-07-25T08:30:31.048Z,1002.64
2022-07-25T08:31:31.120Z,1002.63
2022-07-25T08:32:31.059Z,1002.60
2022-07-25T08:33:30.967Z,1002.59
2022-07-25T08:34:31.044Z,1002.62
2022-07-25T08:35:30.948Z,1002.63
2022-07-25T08:36:34.583Z,1002.62
2022-07-25T08:37:30.909Z,1002.60
2022-07-25T08:38:30.946Z,1002.54
2022-07-25T08:39:30.907Z,1002.60
2022-07-25T08:40:31.002Z,1002.57
2022-07-25T08:41:30.869Z,1002.56
2022-07-25T08:42:51.966Z,1002.57
2022-07-25T08:43:30.938Z,1002.61
2022-07-25T08:45:40.465Z,1002.60
2022-07-25T08:46:40.401Z,1002.54
2022-07-25T08:47:40.425Z,1002.56
2022-07-25T08:48:40.373Z,1002.58
2022-07-25T08:49:40.442Z,1002.60
2022-07-25T08:50:40.337Z,1002.57
2022-07-25T08:51:40.366Z,1002.58
2022-07-25T08:52:40.292Z,1002.53
2022-07-25T08:53:41.392Z,1002.55
2022-07-25T08:54:40.274Z,1002.51
2022-07-25T08:55:42.383Z,1002.53
2022-07-25T08:56:40.257Z,1002.56
